sensor_id;sensor_type;location;lat;lon;timestamp;pressure;altitude;pressure_sealevel;temperature;humidity
9009;BME280;62813;51.424;6.762;2023-04-09T00:00:01;102289.06;;;9.18;81.02
9009;BME280;62813;51.424;6.762;2023-04-09T00:02:28;102283.91;;;9.15;81.35
9009;BME280;62813;51.424;6.762;2023-04-09T00:04:54;102289.94;;;9.14;81.09
9009;BME280;62813;51.424;6.762;2023-04-09T00:07:21;102288.28;;;9.10;81.17
9009;BME280;62813;51.424;6.762;2023-04-09T00:09:48;102281.41;;;9.09;81.16
9009;BME280;62813;51.424;6.762;2023-04-09T00:12:14;102283.09;;;9.08;81.10
9009;BME280;62813;51.424;6.762;2023-04-09T00:14:41;102284.00;;;9.06;80.85
9009;BME280;62813;51.424;6.762;2023-04-09T00:17:08;102286.59;;;9.03;81.29
9009;BME280;62813;51.424;6.762;2023-04-09T00:19:34;102281.41;;;9.03;81.35
9009;BME280;62813;51.424;6.762;2023-04-09T00:22:01;102281.47;;;8.96;81.48
9009;BME280;62813;51.424;6.762;2023-04-09T00:24:28;102284.88;;;9.02;81.40
9009;BME280;62813;51.424;6.762;2023-04-09T00:26:55;102289.25;;;8.96;81.72
9009;BME280;62813;51.424;6.762;2023-04-09T00:29:22;102289.28;;;8.95;81.35
9009;BME280;62813;51.424;6.762;2023-04-09T00:31:49;102288.38;;;8.94;81.40
9009;BME280;62813;51.424;6.762;2023-04-09T00:34:16;102282.31;;;8.99;81.59
9009;BME280;62813;51.424;6.762;2023-04-09T00:36:42;102287.53;;;8.95;81.36
9009;BME280;62813;51.424;6.762;2023-04-09T00:39:09;102291.06;;;8.88;81.55
9009;BME280;62813;51.424;6.762;2023-04-09T00:41:36;102279.84;;;8.88;81.30
9009;BME280;62813;51.424;6.762;2023-04-09T00:44:03;102278.94;;;8.87;81.19
9009;BME280;62813;51.424;6.762;2023-04-09T00:46:30;102293.66;;;8.88;81.47
9009;BME280;62813;51.424;6.762;2023-04-09T00:48:58;102296.22;;;8.88;81.29
9009;BME280;62813;51.424;6.762;2023-04-09T00:51:25;102291.91;;;8.87;81.67
9009;BME280;62813;51.424;6.762;2023-04-09T00:53:52;102280.72;;;8.85;81.00
9009;BME280;62813;51.424;6.762;2023-04-09T00:56:20;102285.00;;;8.86;81.61
9009;BME280;62813;51.424;6.762;2023-04-09T00:58:49;102288.47;;;8.85;81.55
9009;BME280;62813;51.424;6.762;2023-04-09T01:01:16;102287.63;;;8.83;81.35
9009;BME280;62813;51.424;6.762;2023-04-09T01:03:43;102297.97;;;8.85;81.56
9009;BME280;62813;51.424;6.762;2023-04-09T01:09:18;102292.84;;;8.79;81.50
9009;BME280;62813;51.424;6.762;2023-04-09T01:12:05;102298.06;;;8.76;81.55
9009;BME280;62813;51.424;6.762;2023-04-09T01:14:49;102291.16;;;8.73;81.40
9009;BME280;62813;51.424;6.762;2023-04-09T01:17:47;102293.84;;;8.67;81.53
9009;BME280;62813;51.424;6.762;2023-04-09T01:20:18;102291.25;;;8.67;81.59
9009;BME280;62813;51.424;6.762;2023-04-09T01:22:58;102292.16;;;8.60;81.75
9009;BME280;62813;51.424;6.762;2023-04-09T01:28:19;102289.63;;;8.54;81.93
9009;BME280;62813;51.424;6.762;2023-04-09T01:30:49;102288.75;;;8.55;82.45
9009;BME280;62813;51.424;6.762;2023-04-09T01:33:19;102290.47;;;8.54;82.07
9009;BME280;62813;51.424;6.762;2023-04-09T01:35:47;102289.63;;;8.54;81.78
9009;BME280;62813;51.424;6.762;2023-04-09T01:38:17;102286.19;;;8.53;82.22
9009;BME280;62813;51.424;6.762;2023-04-09T01:40:45;102287.06;;;8.52;82.18
9009;BME280;62813;51.424;6.762;2023-04-09T01:43:12;102283.63;;;8.49;82.08
9009;BME280;62813;51.424;6.762;2023-04-09T01:45:41;102278.47;;;8.46;82.29
9009;BME280;62813;51.424;6.762;2023-04-09T01:48:09;102279.31;;;8.45;81.88
9009;BME280;62813;51.424;6.762;2023-04-09T01:50:36;102276.72;;;8.45;82.52
9009;BME280;62813;51.424;6.762;2023-04-09T01:53:04;102276.72;;;8.48;82.25
9009;BME280;62813;51.424;6.762;2023-04-09T01:55:31;102273.31;;;8.46;82.23
9009;BME280;62813;51.424;6.762;2023-04-09T01:57:57;102281.91;;;8.45;82.36
9009;BME280;62813;51.424;6.762;2023-04-09T02:00:30;102276.78;;;8.40;82.17
9009;BME280;62813;51.424;6.762;2023-04-09T02:03:16;102272.47;;;8.40;82.24
9009;BME280;62813;51.424;6.762;2023-04-09T02:06:22;102267.31;;;8.36;82.58
9009;BME280;62813;51.424;6.762;2023-04-09T02:08:46;102272.50;;;8.34;82.09
9009;BME280;62813;51.424;6.762;2023-04-09T02:11:14;102269.97;;;8.31;82.71
9009;BME280;62813;51.424;6.762;2023-04-09T02:13:42;102275.13;;;8.31;82.66
9009;BME280;62813;51.424;6.762;2023-04-09T02:16:11;102272.56;;;8.28;81.95
9009;BME280;62813;51.424;6.762;2023-04-09T02:18:39;102271.72;;;8.23;82.40
9009;BME280;62813;51.424;6.762;2023-04-09T02:21:06;102265.72;;;8.21;82.64
9009;BME280;62813;51.424;6.762;2023-04-09T02:23:32;102269.19;;;8.19;82.78
9009;BME280;62813;51.424;6.762;2023-04-09T02:25:59;102266.63;;;8.17;82.69
9009;BME280;62813;51.424;6.762;2023-04-09T02:28:26;102257.97;;;8.15;82.76
9009;BME280;62813;51.424;6.762;2023-04-09T02:30:53;102258.84;;;8.14;83.02
9009;BME280;62813;51.424;6.762;2023-04-09T02:33:20;102258.91;;;8.11;83.27
9009;BME280;62813;51.424;6.762;2023-04-09T02:35:48;102258.88;;;8.12;82.96
9009;BME280;62813;51.424;6.762;2023-04-09T02:38:14;102261.47;;;8.11;83.06
9009;BME280;62813;51.424;6.762;2023-04-09T02:40:41;102258.06;;;8.03;82.81
9009;BME280;62813;51.424;6.762;2023-04-09T02:43:09;102254.63;;;8.01;83.30
9009;BME280;62813;51.424;6.762;2023-04-09T02:45:36;102245.19;;;7.97;83.31
9009;BME280;62813;51.424;6.762;2023-04-09T02:48:05;102244.31;;;7.95;83.57
9009;BME280;62813;51.424;6.762;2023-04-09T02:50:32;102246.91;;;7.98;83.60
9009;BME280;62813;51.424;6.762;2023-04-09T02:52:58;102242.59;;;7.97;83.30
9009;BME280;62813;51.424;6.762;2023-04-09T02:55:25;102244.31;;;7.95;83.50
9009;BME280;62813;51.424;6.762;2023-04-09T02:57:52;102246.97;;;7.90;83.57
9009;BME280;62813;51.424;6.762;2023-04-09T03:00:19;102242.63;;;7.92;83.63
9009;BME280;62813;51.424;6.762;2023-04-09T03:02:45;102240.06;;;7.91;83.42
9009;BME280;62813;51.424;6.762;2023-04-09T03:05:12;102246.09;;;7.90;83.64
9009;BME280;62813;51.424;6.762;2023-04-09T03:07:39;102233.16;;;7.88;83.66
9009;BME280;62813;51.424;6.762;2023-04-09T03:10:06;102240.94;;;7.86;83.53
9009;BME280;62813;51.424;6.762;2023-04-09T03:12:33;102234.03;;;7.85;83.67
9009;BME280;62813;51.424;6.762;2023-04-09T03:14:59;102236.66;;;7.84;83.16
9009;BME280;62813;51.424;6.762;2023-04-09T03:17:26;102227.16;;;7.81;83.67
9009;BME280;62813;51.424;6.762;2023-04-09T03:19:53;102231.50;;;7.78;83.22
9009;BME280;62813;51.424;6.762;2023-04-09T03:22:19;102227.22;;;7.77;83.55
9009;BME280;62813;51.424;6.762;2023-04-09T03:24:46;102220.31;;;7.77;83.57
9009;BME280;62813;51.424;6.762;2023-04-09T03:27:13;102234.09;;;7.78;83.27
9009;BME280;62813;51.424;6.762;2023-04-09T03:29:39;102227.22;;;7.75;83.66
9009;BME280;62813;51.424;6.762;2023-04-09T03:32:06;102220.34;;;7.71;83.65
9009;BME280;62813;51.424;6.762;2023-04-09T03:34:33;102217.78;;;7.70;83.63
9009;BME280;62813;51.424;6.762;2023-04-09T03:36:59;102226.38;;;7.70;83.35
9009;BME280;62813;51.424;6.762;2023-04-09T03:39:26;102222.09;;;7.69;83.37
9009;BME280;62813;51.424;6.762;2023-04-09T03:41:56;102228.13;;;7.68;83.22
9009;BME280;62813;51.424;6.762;2023-04-09T03:44:24;102222.97;;;7.65;83.20
9009;BME280;62813;51.424;6.762;2023-04-09T03:46:50;102229.00;;;7.63;83.42
9009;BME280;62813;51.424;6.762;2023-04-09T03:49:18;102226.44;;;7.61;83.41
9009;BME280;62813;51.424;6.762;2023-04-09T03:51:45;102221.28;;;7.61;83.61
9009;BME280;62813;51.424;6.762;2023-04-09T03:54:11;102226.44;;;7.59;83.56
9009;BME280;62813;51.424;6.762;2023-04-09T03:56:39;102225.56;;;7.59;83.96
9009;BME280;62813;51.424;6.762;2023-04-09T03:59:05;102224.72;;;7.57;83.72
9009;BME280;62813;51.424;6.762;2023-04-09T04:01:32;102230.75;;;7.56;83.61
9009;BME280;62813;51.424;6.762;2023-04-09T04:04:00;102232.47;;;7.57;83.41
9009;BME280;62813;51.424;6.762;2023-04-09T04:06:27;102234.22;;;7.55;83.63
9009;BME280;62813;51.424;6.762;2023-04-09T04:08:54;102238.50;;;7.53;83.55
9009;BME280;62813;51.424;6.762;2023-04-09T04:11:21;102223.91;;;7.49;83.50
9009;BME280;62813;51.424;6.762;2023-04-09T04:13:47;102234.25;;;7.49;83.49
9009;BME280;62813;51.424;6.762;2023-04-09T04:16:14;102229.06;;;7.46;83.59
9009;BME280;62813;51.424;6.762;2023-04-09T04:18:41;102226.50;;;7.46;83.87
9009;BME280;62813;51.424;6.762;2023-04-09T04:21:12;102230.81;;;7.44;83.50
9009;BME280;62813;51.424;6.762;2023-04-09T04:23:40;102228.25;;;7.41;83.64
9009;BME280;62813;51.424;6.762;2023-04-09T04:26:08;102223.06;;;7.42;83.86
9009;BME280;62813;51.424;6.762;2023-04-09T04:28:38;102221.38;;;7.41;83.75
9009;BME280;62813;51.424;6.762;2023-04-09T04:31:09;102229.13;;;7.40;83.84
9009;BME280;62813;51.424;6.762;2023-04-09T04:33:39;102229.13;;;7.40;83.32
9009;BME280;62813;51.424;6.762;2023-04-09T04:36:11;102224.81;;;7.37;83.58
9009;BME280;62813;51.424;6.762;2023-04-09T04:38:39;102232.56;;;7.36;83.52
9009;BME280;62813;51.424;6.762;2023-04-09T04:41:07;102224.84;;;7.33;83.81
9009;BME280;62813;51.424;6.762;2023-04-09T04:43:34;102225.69;;;7.31;83.81
9009;BME280;62813;51.424;6.762;2023-04-09T04:46:00;102230.88;;;7.30;83.78
9009;BME280;62813;51.424;6.762;2023-04-09T04:48:27;102231.75;;;7.29;83.53
9009;BME280;62813;51.424;6.762;2023-04-09T04:50:58;102228.28;;;7.30;83.82
9009;BME280;62813;51.424;6.762;2023-04-09T04:53:25;102225.72;;;7.28;83.48
9009;BME280;62813;51.424;6.762;2023-04-09T04:55:53;102228.31;;;7.27;83.55
9009;BME280;62813;51.424;6.762;2023-04-09T04:58:19;102231.75;;;7.24;83.46
9009;BME280;62813;51.424;6.762;2023-04-09T05:00:46;102230.88;;;7.24;83.59
9009;BME280;62813;51.424;6.762;2023-04-09T05:03:13;102234.31;;;7.24;83.70
9009;BME280;62813;51.424;6.762;2023-04-09T05:05:40;102230.03;;;7.23;83.52
9009;BME280;62813;51.424;6.762;2023-04-09T05:08:07;102228.31;;;7.24;83.51
9009;BME280;62813;51.424;6.762;2023-04-09T05:10:34;102230.03;;;7.23;83.37
9009;BME280;62813;51.424;6.762;2023-04-09T05:13:01;102226.56;;;7.24;83.51
9009;BME280;62813;51.424;6.762;2023-04-09T05:15:27;102230.00;;;7.25;83.83
9009;BME280;62813;51.424;6.762;2023-04-09T05:17:54;102226.56;;;7.24;83.39
9009;BME280;62813;51.424;6.762;2023-04-09T05:20:21;102230.88;;;7.27;83.46
9009;BME280;62813;51.424;6.762;2023-04-09T05:22:48;102234.34;;;7.27;83.54
9009;BME280;62813;51.424;6.762;2023-04-09T05:25:15;102245.53;;;7.28;83.46
9009;BME280;62813;51.424;6.762;2023-04-09T05:27:41;102242.94;;;7.29;83.65
9009;BME280;62813;51.424;6.762;2023-04-09T05:30:09;102243.81;;;7.27;82.90
9009;BME280;62813;51.424;6.762;2023-04-09T05:32:36;102237.75;;;7.29;83.20
9009;BME280;62813;51.424;6.762;2023-04-09T05:35:03;102239.47;;;7.30;83.11
9009;BME280;62813;51.424;6.762;2023-04-09T05:37:30;102232.59;;;7.33;82.74
9009;BME280;62813;51.424;6.762;2023-04-09T05:39:57;102236.03;;;7.35;83.13
9009;BME280;62813;51.424;6.762;2023-04-09T05:42:23;102235.16;;;7.40;82.99
9009;BME280;62813;51.424;6.762;2023-04-09T05:44:50;102232.50;;;7.46;83.19
9009;BME280;62813;51.424;6.762;2023-04-09T05:47:16;102236.81;;;7.52;82.54
9009;BME280;62813;51.424;6.762;2023-04-09T05:49:43;102239.38;;;7.53;82.64
9009;BME280;62813;51.424;6.762;2023-04-09T05:52:10;102240.19;;;7.60;82.59
9009;BME280;62813;51.424;6.762;2023-04-09T05:54:36;102233.28;;;7.65;82.18
9009;BME280;62813;51.424;6.762;2023-04-09T05:57:03;102234.97;;;7.72;81.89
9009;BME280;62813;51.424;6.762;2023-04-09T05:59:32;102233.22;;;7.82;81.62
9009;BME280;62813;51.424;6.762;2023-04-09T06:01:59;102238.34;;;7.86;81.18
9009;BME280;62813;51.424;6.762;2023-04-09T06:04:25;102233.16;;;7.91;81.37
9009;BME280;62813;51.424;6.762;2023-04-09T06:06:53;102234.00;;;7.96;80.90
9009;BME280;62813;51.424;6.762;2023-04-09T06:09:21;102232.22;;;8.00;80.81
9009;BME280;62813;51.424;6.762;2023-04-09T06:11:47;102229.59;;;8.07;80.57
9009;BME280;62813;51.424;6.762;2023-04-09T06:14:14;102237.34;;;8.12;80.15
9009;BME280;62813;51.424;6.762;2023-04-09T06:16:43;102227.81;;;8.16;80.04
9009;BME280;62813;51.424;6.762;2023-04-09T06:19:10;102232.16;;;8.12;79.45
9009;BME280;62813;51.424;6.762;2023-04-09T06:21:37;102232.13;;;8.18;79.53
9009;BME280;62813;51.424;6.762;2023-04-09T06:24:06;102238.09;;;8.22;78.18
9009;BME280;62813;51.424;6.762;2023-04-09T06:26:32;102235.50;;;8.23;78.83
9009;BME280;62813;51.424;6.762;2023-04-09T06:28:59;102241.53;;;8.24;78.28
9009;BME280;62813;51.424;6.762;2023-04-09T06:31:26;102238.97;;;8.25;78.37
9009;BME280;62813;51.424;6.762;2023-04-09T06:33:53;102243.16;;;8.37;78.61
9009;BME280;62813;51.424;6.762;2023-04-09T06:36:20;102243.13;;;8.43;78.27
9009;BME280;62813;51.424;6.762;2023-04-09T06:38:47;102243.03;;;8.54;78.39
9009;BME280;62813;51.424;6.762;2023-04-09T06:41:13;102241.19;;;8.65;78.13
9009;BME280;62813;51.424;6.762;2023-04-09T06:43:41;102235.97;;;8.74;78.37
9009;BME280;62813;51.424;6.762;2023-04-09T06:46:07;102243.66;;;8.82;77.88
9009;BME280;62813;51.424;6.762;2023-04-09T06:48:34;102241.84;;;8.88;77.10
9009;BME280;62813;51.424;6.762;2023-04-09T06:51:01;102246.06;;;8.99;77.22
9009;BME280;62813;51.424;6.762;2023-04-09T06:53:28;102252.03;;;9.07;77.10
9009;BME280;62813;51.424;6.762;2023-04-09T06:55:55;102252.88;;;9.07;76.76
9009;BME280;62813;51.424;6.762;2023-04-09T06:58:22;102242.44;;;9.18;76.69
9009;BME280;62813;51.424;6.762;2023-04-09T07:00:49;102251.00;;;9.25;76.00
9009;BME280;62813;51.424;6.762;2023-04-09T07:03:15;102255.19;;;9.35;75.95
9009;BME280;62813;51.424;6.762;2023-04-09T07:05:42;102250.75;;;9.44;75.19
9009;BME280;62813;51.424;6.762;2023-04-09T07:08:09;102253.22;;;9.54;74.59
9009;BME280;62813;51.424;6.762;2023-04-09T07:10:37;102253.13;;;9.61;74.15
9009;BME280;62813;51.424;6.762;2023-04-09T07:13:04;102259.91;;;9.70;74.01
9009;BME280;62813;51.424;6.762;2023-04-09T07:15:30;102263.28;;;9.80;74.00
9009;BME280;62813;51.424;6.762;2023-04-09T07:17:57;102259.72;;;9.85;73.28
9009;BME280;62813;51.424;6.762;2023-04-09T07:20:24;102263.06;;;9.95;73.37
9009;BME280;62813;51.424;6.762;2023-04-09T07:22:50;102256.03;;;10.01;73.20
9009;BME280;62813;51.424;6.762;2023-04-09T07:25:17;102259.38;;;10.10;72.33
9009;BME280;62813;51.424;6.762;2023-04-09T07:27:44;102264.56;;;10.10;72.07
9009;BME280;62813;51.424;6.762;2023-04-09T07:30:11;102259.22;;;10.19;70.78
9009;BME280;62813;51.424;6.762;2023-04-09T07:32:38;102254.03;;;10.19;70.17
9009;BME280;62813;51.424;6.762;2023-04-09T07:35:06;102253.06;;;10.26;70.84
9009;BME280;62813;51.424;6.762;2023-04-09T07:37:33;102258.09;;;10.35;69.37
9009;BME280;62813;51.424;6.762;2023-04-09T07:40:00;102260.66;;;10.38;70.02
9009;BME280;62813;51.424;6.762;2023-04-09T07:42:29;102264.00;;;10.46;69.27
9009;BME280;62813;51.424;6.762;2023-04-09T07:44:56;102266.69;;;10.40;68.59
9009;BME280;62813;51.424;6.762;2023-04-09T07:47:23;102264.16;;;10.37;68.39
9009;BME280;62813;51.424;6.762;2023-04-09T07:49:49;102263.13;;;10.46;68.47
9009;BME280;62813;51.424;6.762;2023-04-09T07:52:16;102258.59;;;10.58;68.21
9009;BME280;62813;51.424;6.762;2023-04-09T07:54:43;102256.66;;;10.70;67.58
9009;BME280;62813;51.424;6.762;2023-04-09T07:57:10;102259.13;;;10.77;67.67
9009;BME280;62813;51.424;6.762;2023-04-09T07:59:36;102258.16;;;10.83;66.60
9009;BME280;62813;51.424;6.762;2023-04-09T08:02:05;102255.41;;;10.91;67.24
9009;BME280;62813;51.424;6.762;2023-04-09T08:04:32;102257.06;;;10.99;66.61
9009;BME280;62813;51.424;6.762;2023-04-09T08:06:59;102261.47;;;10.94;64.62
9009;BME280;62813;51.424;6.762;2023-04-09T08:09:27;102262.09;;;11.07;64.31
9009;BME280;62813;51.424;6.762;2023-04-09T08:11:54;102252.59;;;11.04;62.58
9009;BME280;62813;51.424;6.762;2023-04-09T08:14:21;102258.78;;;10.97;62.86
9009;BME280;62813;51.424;6.762;2023-04-09T08:16:48;102250.97;;;11.00;62.67
9009;BME280;62813;51.424;6.762;2023-04-09T08:19:16;102256.91;;;11.05;62.08
9009;BME280;62813;51.424;6.762;2023-04-09T08:21:43;102254.16;;;11.14;61.86
9009;BME280;62813;51.424;6.762;2023-04-09T08:24:10;102251.34;;;11.25;61.62
9009;BME280;62813;51.424;6.762;2023-04-09T08:26:38;102252.03;;;11.35;60.62
9009;BME280;62813;51.424;6.762;2023-04-09T08:29:05;102249.59;;;11.26;59.27
9009;BME280;62813;51.424;6.762;2023-04-09T08:31:33;102242.59;;;11.29;58.94
9009;BME280;62813;51.424;6.762;2023-04-09T08:34:00;102255.34;;;11.41;58.58
9009;BME280;62813;51.424;6.762;2023-04-09T08:36:26;102251.75;;;11.47;58.47
9009;BME280;62813;51.424;6.762;2023-04-09T08:38:54;102248.25;;;11.48;57.60
9009;BME280;62813;51.424;6.762;2023-04-09T08:41:23;102249.91;;;11.52;57.48
9009;BME280;62813;51.424;6.762;2023-04-09T08:43:51;102248.94;;;11.58;58.22
9009;BME280;62813;51.424;6.762;2023-04-09T08:46:24;102252.44;;;11.57;57.38
9009;BME280;62813;51.424;6.762;2023-04-09T08:48:54;102257.63;;;11.57;57.25
9009;BME280;62813;51.424;6.762;2023-04-09T08:51:22;102259.13;;;11.67;57.11
9009;BME280;62813;51.424;6.762;2023-04-09T08:53:58;102260.88;;;11.66;56.14
9009;BME280;62813;51.424;6.762;2023-04-09T08:56:28;102259.19;;;11.65;54.71
9009;BME280;62813;51.424;6.762;2023-04-09T08:58:56;102259.94;;;11.70;55.19
9009;BME280;62813;51.424;6.762;2023-04-09T09:01:27;102257.22;;;11.77;54.70
9009;BME280;62813;51.424;6.762;2023-04-09T09:04:05;102254.53;;;11.80;54.60
9009;BME280;62813;51.424;6.762;2023-04-09T09:06:37;102255.09;;;11.94;54.84
9009;BME280;62813;51.424;6.762;2023-04-09T09:09:11;102258.31;;;12.05;54.06
9009;BME280;62813;51.424;6.762;2023-04-09T09:11:44;102246.16;;;12.06;52.22
9009;BME280;62813;51.424;6.762;2023-04-09T09:14:13;102248.72;;;12.07;52.40
9009;BME280;62813;51.424;6.762;2023-04-09T09:16:43;102247.50;;;12.22;51.94
9009;BME280;62813;51.424;6.762;2023-04-09T09:22:03;102241.13;;;12.34;52.04
9009;BME280;62813;51.424;6.762;2023-04-09T09:24:31;102244.56;;;12.36;51.30
9009;BME280;62813;51.424;6.762;2023-04-09T09:27:00;102244.25;;;12.48;51.40
9009;BME280;62813;51.424;6.762;2023-04-09T09:29:28;102243.34;;;12.49;51.91
9009;BME280;62813;51.424;6.762;2023-04-09T09:31:55;102234.56;;;12.55;51.17
9009;BME280;62813;51.424;6.762;2023-04-09T09:34:23;102223.13;;;12.60;51.65
9009;BME280;62813;51.424;6.762;2023-04-09T09:36:50;102217.84;;;12.63;50.67
9009;BME280;62813;51.424;6.762;2023-04-09T09:39:17;102224.34;;;12.79;50.68
9009;BME280;62813;51.424;6.762;2023-04-09T09:41:45;102215.94;;;12.70;49.17
9009;BME280;62813;51.424;6.762;2023-04-09T09:44:29;102219.72;;;12.58;49.72
9009;BME280;62813;51.424;6.762;2023-04-09T09:46:57;102221.84;;;12.76;50.10
9009;BME280;62813;51.424;6.762;2023-04-09T09:49:24;102221.09;;;12.71;49.46
9009;BME280;62813;51.424;6.762;2023-04-09T09:51:52;102223.75;;;12.70;50.77
9009;BME280;62813;51.424;6.762;2023-04-09T09:54:21;102220.84;;;12.80;50.25
9009;BME280;62813;51.424;6.762;2023-04-09T09:56:51;102218.28;;;12.79;50.29
9009;BME280;62813;51.424;6.762;2023-04-09T09:59:29;102215.72;;;12.77;48.49
9009;BME280;62813;51.424;6.762;2023-04-09T10:02:04;102219.25;;;12.76;48.77
9009;BME280;62813;51.424;6.762;2023-04-09T10:04:33;102213.50;;;12.64;49.72
9009;BME280;62813;51.424;6.762;2023-04-09T10:07:03;102207.28;;;12.69;49.54
9009;BME280;62813;51.424;6.762;2023-04-09T10:09:34;102195.59;;;12.84;49.68
9009;BME280;62813;51.424;6.762;2023-04-09T10:12:03;102201.53;;;12.88;49.09
9009;BME280;62813;51.424;6.762;2023-04-09T10:14:33;102196.44;;;12.85;48.76
9009;BME280;62813;51.424;6.762;2023-04-09T10:17:01;102200.66;;;12.89;48.73
9009;BME280;62813;51.424;6.762;2023-04-09T10:19:40;102197.69;;;12.70;48.08
9009;BME280;62813;51.424;6.762;2023-04-09T10:22:12;102194.78;;;12.80;48.44
9009;BME280;62813;51.424;6.762;2023-04-09T10:24:41;102193.03;;;12.83;48.64
9009;BME280;62813;51.424;6.762;2023-04-09T10:27:10;102192.81;;;12.89;48.01
9009;BME280;62813;51.424;6.762;2023-04-09T10:29:44;102191.84;;;12.93;48.34
9009;BME280;62813;51.424;6.762;2023-04-09T10:32:18;102199.56;;;12.96;47.78
9009;BME280;62813;51.424;6.762;2023-04-09T10:34:49;102193.50;;;12.97;48.43
9009;BME280;62813;51.424;6.762;2023-04-09T10:37:21;102189.19;;;12.94;47.64
9009;BME280;62813;51.424;6.762;2023-04-09T10:39:49;102191.38;;;13.10;48.57
9009;BME280;62813;51.424;6.762;2023-04-09T10:45:14;102174.81;;;13.12;47.42
9009;BME280;62813;51.424;6.762;2023-04-09T10:47:42;102170.22;;;13.20;47.96
9009;BME280;62813;51.424;6.762;2023-04-09T10:50:17;102169.00;;;13.32;47.90
9009;BME280;62813;51.424;6.762;2023-04-09T10:52:45;102179.84;;;13.18;47.35
9009;BME280;62813;51.424;6.762;2023-04-09T10:58:06;102172.88;;;13.19;45.89
9009;BME280;62813;51.424;6.762;2023-04-09T11:00:39;102171.41;;;13.08;45.95
9009;BME280;62813;51.424;6.762;2023-04-09T11:03:19;102167.97;;;13.08;46.16
9009;BME280;62813;51.424;6.762;2023-04-09T11:05:51;102173.56;;;13.24;46.64
9009;BME280;62813;51.424;6.762;2023-04-09T11:08:18;102168.97;;;13.33;47.65
9009;BME280;62813;51.424;6.762;2023-04-09T11:10:45;102158.38;;;13.38;47.02
9009;BME280;62813;51.424;6.762;2023-04-09T11:13:17;102158.16;;;13.46;46.89
9009;BME280;62813;51.424;6.762;2023-04-09T11:15:46;102164.00;;;13.54;46.15
9009;BME280;62813;51.424;6.762;2023-04-09T11:18:14;102154.13;;;13.63;46.80
9009;BME280;62813;51.424;6.762;2023-04-09T11:20:40;102152.50;;;13.59;46.14
9009;BME280;62813;51.424;6.762;2023-04-09T11:23:09;102150.78;;;13.60;45.73
9009;BME280;62813;51.424;6.762;2023-04-09T11:25:38;102145.34;;;13.66;46.61
9009;BME280;62813;51.424;6.762;2023-04-09T11:28:06;102144.88;;;13.81;46.01
9009;BME280;62813;51.424;6.762;2023-04-09T11:30:34;102137.56;;;13.93;46.21
9009;BME280;62813;51.424;6.762;2023-04-09T11:33:02;102143.25;;;13.77;45.67
9009;BME280;62813;51.424;6.762;2023-04-09T11:35:33;102134.91;;;13.66;46.46
9009;BME280;62813;51.424;6.762;2023-04-09T11:38:07;102133.59;;;13.79;46.40
9009;BME280;62813;51.424;6.762;2023-04-09T11:40:34;102134.44;;;13.81;45.88
9009;BME280;62813;51.424;6.762;2023-04-09T11:43:01;102127.13;;;13.93;46.30
9009;BME280;62813;51.424;6.762;2023-04-09T11:45:30;102128.78;;;13.95;44.63
9009;BME280;62813;51.424;6.762;2023-04-09T11:47:57;102126.34;;;13.89;45.76
9009;BME280;62813;51.424;6.762;2023-04-09T11:50:24;102129.00;;;13.87;46.78
9009;BME280;62813;51.424;6.762;2023-04-09T11:52:51;102129.78;;;13.91;46.29
9009;BME280;62813;51.424;6.762;2023-04-09T11:55:36;102131.81;;;13.81;45.72
9009;BME280;62813;51.424;6.762;2023-04-09T11:58:09;102124.06;;;13.78;45.81
9009;BME280;62813;51.424;6.762;2023-04-09T12:00:39;102120.66;;;13.76;45.46
9009;BME280;62813;51.424;6.762;2023-04-09T12:03:06;102124.78;;;13.83;45.97
9009;BME280;62813;51.424;6.762;2023-04-09T12:05:33;102116.09;;;13.83;46.64
9009;BME280;62813;51.424;6.762;2023-04-09T12:08:06;102116.81;;;13.88;45.55
9009;BME280;62813;51.424;6.762;2023-04-09T12:10:36;102127.13;;;13.93;46.44
9009;BME280;62813;51.424;6.762;2023-04-09T12:13:05;102111.25;;;13.99;45.66
9009;BME280;62813;51.424;6.762;2023-04-09T12:15:36;102117.00;;;14.10;46.10
9009;BME280;62813;51.424;6.762;2023-04-09T12:18:07;102122.03;;;14.14;46.72
9009;BME280;62813;51.424;6.762;2023-04-09T12:20:42;102119.69;;;14.07;45.83
9009;BME280;62813;51.424;6.762;2023-04-09T12:23:10;102117.88;;;14.09;45.68
9009;BME280;62813;51.424;6.762;2023-04-09T12:25:39;102112.03;;;14.02;46.71
9009;BME280;62813;51.424;6.762;2023-04-09T12:28:08;102114.91;;;13.93;46.69
9009;BME280;62813;51.424;6.762;2023-04-09T12:30:35;102110.53;;;13.95;45.35
9009;BME280;62813;51.424;6.762;2023-04-09T12:33:03;102118.31;;;13.97;45.85
9009;BME280;62813;51.424;6.762;2023-04-09T12:35:30;102109.91;;;13.85;46.26
9009;BME280;62813;51.424;6.762;2023-04-09T12:37:57;102118.53;;;13.89;46.08
9009;BME280;62813;51.424;6.762;2023-04-09T12:40:27;102115.94;;;13.87;46.11
9009;BME280;62813;51.424;6.762;2023-04-09T12:42:56;102114.06;;;13.93;45.96
9009;BME280;62813;51.424;6.762;2023-04-09T12:45:22;102108.75;;;13.96;46.64
9009;BME280;62813;51.424;6.762;2023-04-09T12:47:49;102110.53;;;13.95;46.41
9009;BME280;62813;51.424;6.762;2023-04-09T12:50:16;102113.06;;;13.97;46.50
9009;BME280;62813;51.424;6.762;2023-04-09T12:52:44;102118.31;;;13.97;45.81
9009;BME280;62813;51.424;6.762;2023-04-09T12:55:13;102119.22;;;13.96;46.35
9009;BME280;62813;51.424;6.762;2023-04-09T12:57:43;102120.09;;;13.95;45.99
9009;BME280;62813;51.424;6.762;2023-04-09T13:00:10;102120.84;;;13.98;46.12
9009;BME280;62813;51.424;6.762;2023-04-09T13:02:38;102117.59;;;13.92;46.10
9009;BME280;62813;51.424;6.762;2023-04-09T13:05:05;102112.44;;;13.88;46.39
9009;BME280;62813;51.424;6.762;2023-04-09T13:07:32;102110.59;;;13.92;46.42
9009;BME280;62813;51.424;6.762;2023-04-09T13:09:58;102099.25;;;13.93;46.06
9009;BME280;62813;51.424;6.762;2023-04-09T13:12:25;102096.72;;;13.92;46.85
9009;BME280;62813;51.424;6.762;2023-04-09T13:14:53;102099.47;;;13.85;46.38
9009;BME280;62813;51.424;6.762;2023-04-09T13:17:20;102096.78;;;13.88;47.13
9009;BME280;62813;51.424;6.762;2023-04-09T13:19:48;102104.69;;;13.85;46.91
9009;BME280;62813;51.424;6.762;2023-04-09T13:22:14;102100.50;;;13.81;46.31
9009;BME280;62813;51.424;6.762;2023-04-09T13:24:41;102100.53;;;13.80;46.54